sensor_id;sensor_type;location;lat;lon;timestamp;P1;durP1;ratioP1;P2;durP2;ratioP2
70233;SDS011;75981;42.636;23.376;2024-02-14T00:01:53;11.32;;;5.45;;
70233;SDS011;75981;42.636;23.376;2024-02-14T00:04:19;10.07;;;4.85;;
70233;SDS011;75981;42.636;23.376;2024-02-14T00:06:45;11.35;;;4.93;;
70233;SDS011;75981;42.636;23.376;2024-02-14T00:09:10;10.23;;;5.05;;
70233;SDS011;75981;42.636;23.376;2024-02-14T00:11:36;9.75;;;4.88;;
70233;SDS011;75981;42.636;23.376;2024-02-14T00:14:02;9.27;;;4.70;;
70233;SDS011;75981;42.636;23.376;2024-02-14T00:16:28;10.27;;;5.50;;
70233;SDS011;75981;42.636;23.376;2024-02-14T00:18:55;10.93;;;5.50;;
70233;SDS011;75981;42.636;23.376;2024-02-14T00:21:22;10.27;;;5.38;;
70233;SDS011;75981;42.636;23.376;2024-02-14T00:23:47;9.93;;;5.38;;
70233;SDS011;75981;42.636;23.376;2024-02-14T00:26:13;9.98;;;5.45;;
70233;SDS011;75981;42.636;23.376;2024-02-14T00:28:38;10.18;;;5.25;;
70233;SDS011;75981;42.636;23.376;2024-02-14T00:31:04;9.60;;;5.00;;
70233;SDS011;75981;42.636;23.376;2024-02-14T00:33:30;10.15;;;5.65;;
70233;SDS011;75981;42.636;23.376;2024-02-14T00:35:55;9.57;;;5.28;;
70233;SDS011;75981;42.636;23.376;2024-02-14T00:38:21;9.65;;;5.80;;
70233;SDS011;75981;42.636;23.376;2024-02-14T00:40:46;10.45;;;5.40;;
70233;SDS011;75981;42.636;23.376;2024-02-14T00:43:12;11.23;;;5.93;;
70233;SDS011;75981;42.636;23.376;2024-02-14T00:45:37;10.50;;;5.25;;
70233;SDS011;75981;42.636;23.376;2024-02-14T00:48:03;9.98;;;5.68;;
70233;SDS011;75981;42.636;23.376;2024-02-14T00:50:29;11.55;;;5.82;;
70233;SDS011;75981;42.636;23.376;2024-02-14T00:52:54;10.98;;;5.80;;
70233;SDS011;75981;42.636;23.376;2024-02-14T00:55:19;10.27;;;5.97;;
70233;SDS011;75981;42.636;23.376;2024-02-14T00:57:45;10.23;;;5.95;;
70233;SDS011;75981;42.636;23.376;2024-02-14T01:00:10;11.20;;;6.07;;
70233;SDS011;75981;42.636;23.376;2024-02-14T01:02:36;10.48;;;5.35;;
70233;SDS011;75981;42.636;23.376;2024-02-14T01:05:01;10.43;;;5.82;;
70233;SDS011;75981;42.636;23.376;2024-02-14T01:07:29;10.48;;;5.43;;
70233;SDS011;75981;42.636;23.376;2024-02-14T01:09:54;9.93;;;5.53;;
70233;SDS011;75981;42.636;23.376;2024-02-14T01:12:20;11.32;;;5.55;;
70233;SDS011;75981;42.636;23.376;2024-02-14T01:14:45;10.60;;;5.95;;
70233;SDS011;75981;42.636;23.376;2024-02-14T01:17:10;11.40;;;6.00;;
70233;SDS011;75981;42.636;23.376;2024-02-14T01:19:36;11.13;;;5.65;;
70233;SDS011;75981;42.636;23.376;2024-02-14T01:22:01;11.90;;;5.90;;
70233;SDS011;75981;42.636;23.376;2024-02-14T01:24:27;11.45;;;5.80;;
70233;SDS011;75981;42.636;23.376;2024-02-14T01:26:55;10.75;;;5.55;;
70233;SDS011;75981;42.636;23.376;2024-02-14T01:29:22;11.20;;;6.32;;
70233;SDS011;75981;42.636;23.376;2024-02-14T01:31:48;11.13;;;6.03;;
70233;SDS011;75981;42.636;23.376;2024-02-14T01:34:16;12.43;;;6.17;;
70233;SDS011;75981;42.636;23.376;2024-02-14T01:36:42;9.98;;;5.60;;
70233;SDS011;75981;42.636;23.376;2024-02-14T01:39:07;11.32;;;5.60;;
70233;SDS011;75981;42.636;23.376;2024-02-14T01:41:36;11.32;;;5.65;;
70233;SDS011;75981;42.636;23.376;2024-02-14T01:44:13;9.57;;;5.25;;
70233;SDS011;75981;42.636;23.376;2024-02-14T01:46:42;10.45;;;6.10;;
70233;SDS011;75981;42.636;23.376;2024-02-14T01:49:11;11.20;;;5.90;;
70233;SDS011;75981;42.636;23.376;2024-02-14T01:54:04;10.93;;;5.63;;
70233;SDS011;75981;42.636;23.376;2024-02-14T01:56:31;10.90;;;6.35;;
70233;SDS011;75981;42.636;23.376;2024-02-14T01:59:03;11.23;;;6.20;;
70233;SDS011;75981;42.636;23.376;2024-02-14T02:01:31;11.50;;;6.00;;
70233;SDS011;75981;42.636;23.376;2024-02-14T02:03:57;10.82;;;6.22;;
70233;SDS011;75981;42.636;23.376;2024-02-14T02:06:23;12.13;;;6.70;;
70233;SDS011;75981;42.636;23.376;2024-02-14T02:08:48;12.30;;;6.07;;
70233;SDS011;75981;42.636;23.376;2024-02-14T02:11:14;10.88;;;6.13;;
70233;SDS011;75981;42.636;23.376;2024-02-14T02:13:40;11.38;;;5.88;;
70233;SDS011;75981;42.636;23.376;2024-02-14T02:16:06;11.85;;;6.32;;
70233;SDS011;75981;42.636;23.376;2024-02-14T02:18:31;12.02;;;6.03;;
70233;SDS011;75981;42.636;23.376;2024-02-14T02:20:57;10.77;;;5.95;;
70233;SDS011;75981;42.636;23.376;2024-02-14T02:23:23;10.13;;;5.85;;
70233;SDS011;75981;42.636;23.376;2024-02-14T02:25:48;11.20;;;6.22;;
70233;SDS011;75981;42.636;23.376;2024-02-14T02:28:15;10.75;;;6.10;;
70233;SDS011;75981;42.636;23.376;2024-02-14T02:30:41;11.52;;;6.65;;
70233;SDS011;75981;42.636;23.376;2024-02-14T02:33:06;11.80;;;6.25;;
70233;SDS011;75981;42.636;23.376;2024-02-14T02:35:32;13.90;;;6.15;;
70233;SDS011;75981;42.636;23.376;2024-02-14T02:37:59;11.43;;;6.30;;
70233;SDS011;75981;42.636;23.376;2024-02-14T02:40:24;12.52;;;6.50;;
70233;SDS011;75981;42.636;23.376;2024-02-14T02:42:50;9.50;;;5.68;;
70233;SDS011;75981;42.636;23.376;2024-02-14T02:45:16;11.30;;;6.70;;
70233;SDS011;75981;42.636;23.376;2024-02-14T02:47:42;10.40;;;6.07;;
70233;SDS011;75981;42.636;23.376;2024-02-14T02:50:07;11.90;;;6.60;;
70233;SDS011;75981;42.636;23.376;2024-02-14T02:52:34;12.35;;;6.20;;
70233;SDS011;75981;42.636;23.376;2024-02-14T02:54:59;13.65;;;6.85;;
70233;SDS011;75981;42.636;23.376;2024-02-14T02:57:30;10.90;;;6.13;;
70233;SDS011;75981;42.636;23.376;2024-02-14T02:59:57;12.48;;;6.40;;
70233;SDS011;75981;42.636;23.376;2024-02-14T03:02:23;11.45;;;6.47;;
70233;SDS011;75981;42.636;23.376;2024-02-14T03:04:50;11.90;;;6.45;;
70233;SDS011;75981;42.636;23.376;2024-02-14T03:07:15;11.27;;;5.88;;
70233;SDS011;75981;42.636;23.376;2024-02-14T03:09:41;11.95;;;6.25;;
70233;SDS011;75981;42.636;23.376;2024-02-14T03:12:07;11.27;;;5.90;;
70233;SDS011;75981;42.636;23.376;2024-02-14T03:14:33;11.20;;;5.75;;
70233;SDS011;75981;42.636;23.376;2024-02-14T03:16:59;11.43;;;6.13;;
70233;SDS011;75981;42.636;23.376;2024-02-14T03:19:25;12.02;;;6.78;;
70233;SDS011;75981;42.636;23.376;2024-02-14T03:21:52;11.40;;;6.45;;
70233;SDS011;75981;42.636;23.376;2024-02-14T03:24:19;10.73;;;6.18;;
70233;SDS011;75981;42.636;23.376;2024-02-14T03:26:44;12.38;;;6.68;;
70233;SDS011;75981;42.636;23.376;2024-02-14T03:29:10;11.35;;;6.50;;
70233;SDS011;75981;42.636;23.376;2024-02-14T03:31:35;12.30;;;7.20;;
70233;SDS011;75981;42.636;23.376;2024-02-14T03:34:03;13.18;;;7.32;;
70233;SDS011;75981;42.636;23.376;2024-02-14T03:36:28;11.68;;;6.72;;
70233;SDS011;75981;42.636;23.376;2024-02-14T03:38:56;11.32;;;6.70;;
70233;SDS011;75981;42.636;23.376;2024-02-14T03:41:22;12.00;;;6.70;;
70233;SDS011;75981;42.636;23.376;2024-02-14T03:43:47;13.00;;;6.82;;
70233;SDS011;75981;42.636;23.376;2024-02-14T03:46:14;11.25;;;6.55;;
70233;SDS011;75981;42.636;23.376;2024-02-14T03:48:40;11.38;;;6.45;;
70233;SDS011;75981;42.636;23.376;2024-02-14T03:51:08;11.20;;;6.47;;
70233;SDS011;75981;42.636;23.376;2024-02-14T03:53:33;12.75;;;6.72;;
70233;SDS011;75981;42.636;23.376;2024-02-14T03:55:59;11.40;;;6.78;;
70233;SDS011;75981;42.636;23.376;2024-02-14T03:58:24;12.77;;;7.05;;
70233;SDS011;75981;42.636;23.376;2024-02-14T04:00:50;11.13;;;6.75;;
70233;SDS011;75981;42.636;23.376;2024-02-14T04:03:16;11.20;;;6.63;;
70233;SDS011;75981;42.636;23.376;2024-02-14T04:05:42;11.55;;;6.45;;
70233;SDS011;75981;42.636;23.376;2024-02-14T04:08:07;12.38;;;6.47;;
70233;SDS011;75981;42.636;23.376;2024-02-14T04:10:38;13.85;;;7.20;;
70233;SDS011;75981;42.636;23.376;2024-02-14T04:13:04;12.77;;;6.90;;
70233;SDS011;75981;42.636;23.376;2024-02-14T04:15:30;15.15;;;6.63;;
70233;SDS011;75981;42.636;23.376;2024-02-14T04:17:56;11.65;;;7.05;;
70233;SDS011;75981;42.636;23.376;2024-02-14T04:20:23;11.38;;;6.72;;
70233;SDS011;75981;42.636;23.376;2024-02-14T04:22:48;13.45;;;7.07;;
70233;SDS011;75981;42.636;23.376;2024-02-14T04:25:14;12.40;;;6.38;;
70233;SDS011;75981;42.636;23.376;2024-02-14T04:27:40;15.20;;;6.68;;
70233;SDS011;75981;42.636;23.376;2024-02-14T04:30:05;10.85;;;6.30;;
70233;SDS011;75981;42.636;23.376;2024-02-14T04:32:31;12.07;;;6.97;;
70233;SDS011;75981;42.636;23.376;2024-02-14T04:34:56;11.82;;;7.38;;
70233;SDS011;75981;42.636;23.376;2024-02-14T04:37:23;12.70;;;6.82;;
70233;SDS011;75981;42.636;23.376;2024-02-14T04:39:48;15.43;;;7.65;;
70233;SDS011;75981;42.636;23.376;2024-02-14T04:42:14;12.25;;;7.43;;
70233;SDS011;75981;42.636;23.376;2024-02-14T04:44:39;12.73;;;7.03;;
70233;SDS011;75981;42.636;23.376;2024-02-14T04:47:05;13.30;;;7.70;;
70233;SDS011;75981;42.636;23.376;2024-02-14T04:49:30;12.85;;;7.05;;
70233;SDS011;75981;42.636;23.376;2024-02-14T04:51:56;15.80;;;7.85;;
70233;SDS011;75981;42.636;23.376;2024-02-14T04:54:22;12.40;;;7.18;;
70233;SDS011;75981;42.636;23.376;2024-02-14T04:56:48;12.90;;;7.93;;
70233;SDS011;75981;42.636;23.376;2024-02-14T04:59:13;13.13;;;7.40;;
70233;SDS011;75981;42.636;23.376;2024-02-14T05:01:39;13.80;;;7.90;;
70233;SDS011;75981;42.636;23.376;2024-02-14T05:04:05;14.05;;;7.90;;
70233;SDS011;75981;42.636;23.376;2024-02-14T05:06:32;14.10;;;8.55;;
70233;SDS011;75981;42.636;23.376;2024-02-14T05:08:58;13.85;;;8.38;;
70233;SDS011;75981;42.636;23.376;2024-02-14T05:11:23;13.07;;;7.85;;
70233;SDS011;75981;42.636;23.376;2024-02-14T05:13:49;13.30;;;7.90;;
70233;SDS011;75981;42.636;23.376;2024-02-14T05:16:17;16.58;;;8.55;;
70233;SDS011;75981;42.636;23.376;2024-02-14T05:18:43;14.43;;;8.40;;
70233;SDS011;75981;42.636;23.376;2024-02-14T05:21:09;17.30;;;9.05;;
70233;SDS011;75981;42.636;23.376;2024-02-14T05:23:34;12.63;;;7.68;;
70233;SDS011;75981;42.636;23.376;2024-02-14T05:26:03;19.40;;;9.03;;
70233;SDS011;75981;42.636;23.376;2024-02-14T05:28:29;17.67;;;8.90;;
70233;SDS011;75981;42.636;23.376;2024-02-14T05:30:56;16.83;;;9.43;;
70233;SDS011;75981;42.636;23.376;2024-02-14T05:33:21;14.93;;;9.57;;
70233;SDS011;75981;42.636;23.376;2024-02-14T05:35:50;15.02;;;9.45;;
70233;SDS011;75981;42.636;23.376;2024-02-14T05:38:16;16.73;;;9.48;;
70233;SDS011;75981;42.636;23.376;2024-02-14T05:40:44;14.23;;;8.77;;
70233;SDS011;75981;42.636;23.376;2024-02-14T05:43:14;14.57;;;8.32;;
70233;SDS011;75981;42.636;23.376;2024-02-14T05:45:40;16.27;;;9.48;;
70233;SDS011;75981;42.636;23.376;2024-02-14T05:48:06;17.45;;;9.45;;
70233;SDS011;75981;42.636;23.376;2024-02-14T05:50:32;14.27;;;8.95;;
70233;SDS011;75981;42.636;23.376;2024-02-14T05:52:58;16.27;;;8.82;;
70233;SDS011;75981;42.636;23.376;2024-02-14T05:55:23;15.95;;;9.13;;
70233;SDS011;75981;42.636;23.376;2024-02-14T05:57:50;15.90;;;9.55;;
70233;SDS011;75981;42.636;23.376;2024-02-14T06:00:21;16.30;;;9.32;;
70233;SDS011;75981;42.636;23.376;2024-02-14T06:02:49;15.05;;;9.48;;
70233;SDS011;75981;42.636;23.376;2024-02-14T06:05:15;16.38;;;8.65;;
70233;SDS011;75981;42.636;23.376;2024-02-14T06:07:41;13.95;;;8.52;;
70233;SDS011;75981;42.636;23.376;2024-02-14T06:10:07;14.73;;;9.23;;
70233;SDS011;75981;42.636;23.376;2024-02-14T06:12:33;16.33;;;9.88;;
70233;SDS011;75981;42.636;23.376;2024-02-14T06:15:00;16.88;;;8.90;;
70233;SDS011;75981;42.636;23.376;2024-02-14T06:17:25;12.95;;;7.65;;
70233;SDS011;75981;42.636;23.376;2024-02-14T06:19:53;14.95;;;8.85;;
70233;SDS011;75981;42.636;23.376;2024-02-14T06:22:19;16.35;;;9.10;;
70233;SDS011;75981;42.636;23.376;2024-02-14T06:24:45;12.15;;;7.75;;
70233;SDS011;75981;42.636;23.376;2024-02-14T06:27:13;13.70;;;8.10;;
70233;SDS011;75981;42.636;23.376;2024-02-14T06:29:41;16.27;;;8.90;;
70233;SDS011;75981;42.636;23.376;2024-02-14T06:32:07;15.57;;;8.98;;
70233;SDS011;75981;42.636;23.376;2024-02-14T06:34:33;14.48;;;7.95;;
70233;SDS011;75981;42.636;23.376;2024-02-14T06:36:58;17.35;;;8.43;;
70233;SDS011;75981;42.636;23.376;2024-02-14T06:39:24;14.52;;;8.20;;
70233;SDS011;75981;42.636;23.376;2024-02-14T06:42:08;14.23;;;8.35;;
70233;SDS011;75981;42.636;23.376;2024-02-14T06:44:41;14.43;;;7.72;;
70233;SDS011;75981;42.636;23.376;2024-02-14T06:47:07;15.68;;;7.78;;
70233;SDS011;75981;42.636;23.376;2024-02-14T06:49:32;12.02;;;7.30;;
70233;SDS011;75981;42.636;23.376;2024-02-14T06:51:57;15.57;;;8.05;;
70233;SDS011;75981;42.636;23.376;2024-02-14T06:54:23;14.15;;;7.40;;
70233;SDS011;75981;42.636;23.376;2024-02-14T06:56:48;13.35;;;7.43;;
70233;SDS011;75981;42.636;23.376;2024-02-14T06:59:16;14.57;;;7.68;;
70233;SDS011;75981;42.636;23.376;2024-02-14T07:01:42;14.75;;;7.57;;
70233;SDS011;75981;42.636;23.376;2024-02-14T07:04:07;12.05;;;6.22;;
70233;SDS011;75981;42.636;23.376;2024-02-14T07:06:33;14.57;;;7.28;;
70233;SDS011;75981;42.636;23.376;2024-02-14T07:08:58;15.77;;;7.25;;
70233;SDS011;75981;42.636;23.376;2024-02-14T07:11:23;13.43;;;7.15;;
70233;SDS011;75981;42.636;23.376;2024-02-14T07:13:49;14.73;;;7.30;;
70233;SDS011;75981;42.636;23.376;2024-02-14T07:16:14;14.13;;;7.88;;
70233;SDS011;75981;42.636;23.376;2024-02-14T07:18:40;15.70;;;7.78;;
70233;SDS011;75981;42.636;23.376;2024-02-14T07:21:06;13.48;;;7.82;;
70233;SDS011;75981;42.636;23.376;2024-02-14T07:23:31;13.18;;;7.47;;
70233;SDS011;75981;42.636;23.376;2024-02-14T07:25:59;13.80;;;7.50;;
70233;SDS011;75981;42.636;23.376;2024-02-14T07:28:26;14.52;;;7.00;;
70233;SDS011;75981;42.636;23.376;2024-02-14T07:30:51;12.93;;;7.55;;
70233;SDS011;75981;42.636;23.376;2024-02-14T07:33:16;10.93;;;6.40;;
70233;SDS011;75981;42.636;23.376;2024-02-14T07:35:42;15.20;;;7.35;;
70233;SDS011;75981;42.636;23.376;2024-02-14T07:38:08;12.63;;;7.22;;
70233;SDS011;75981;42.636;23.376;2024-02-14T07:40:33;13.98;;;7.25;;
70233;SDS011;75981;42.636;23.376;2024-02-14T07:42:59;11.32;;;6.70;;
70233;SDS011;75981;42.636;23.376;2024-02-14T07:45:25;11.85;;;6.47;;
70233;SDS011;75981;42.636;23.376;2024-02-14T07:47:51;12.68;;;7.07;;
70233;SDS011;75981;42.636;23.376;2024-02-14T07:50:17;12.70;;;6.95;;
70233;SDS011;75981;42.636;23.376;2024-02-14T07:52:45;12.85;;;7.20;;
70233;SDS011;75981;42.636;23.376;2024-02-14T07:55:12;13.07;;;6.90;;
70233;SDS011;75981;42.636;23.376;2024-02-14T07:57:38;13.00;;;7.97;;
70233;SDS011;75981;42.636;23.376;2024-02-14T08:00:05;12.20;;;7.18;;
70233;SDS011;75981;42.636;23.376;2024-02-14T08:02:33;15.07;;;7.07;;
70233;SDS011;75981;42.636;23.376;2024-02-14T08:04:59;14.13;;;7.03;;
70233;SDS011;75981;42.636;23.376;2024-02-14T08:07:24;15.98;;;7.45;;
70233;SDS011;75981;42.636;23.376;2024-02-14T08:09:50;13.18;;;6.97;;
70233;SDS011;75981;42.636;23.376;2024-02-14T08:12:15;14.52;;;6.97;;
70233;SDS011;75981;42.636;23.376;2024-02-14T08:14:41;12.80;;;7.13;;
70233;SDS011;75981;42.636;23.376;2024-02-14T08:17:06;14.13;;;7.20;;
70233;SDS011;75981;42.636;23.376;2024-02-14T08:19:32;13.38;;;7.45;;
70233;SDS011;75981;42.636;23.376;2024-02-14T08:21:57;14.80;;;6.50;;
70233;SDS011;75981;42.636;23.376;2024-02-14T08:24:25;15.55;;;6.95;;
70233;SDS011;75981;42.636;23.376;2024-02-14T08:26:52;13.55;;;6.82;;
70233;SDS011;75981;42.636;23.376;2024-02-14T08:29:18;11.25;;;6.75;;
70233;SDS011;75981;42.636;23.376;2024-02-14T08:31:43;11.88;;;6.65;;
70233;SDS011;75981;42.636;23.376;2024-02-14T08:34:09;12.70;;;6.85;;
70233;SDS011;75981;42.636;23.376;2024-02-14T08:36:34;14.07;;;6.97;;
70233;SDS011;75981;42.636;23.376;2024-02-14T08:39:08;12.18;;;6.78;;
70233;SDS011;75981;42.636;23.376;2024-02-14T08:41:37;11.88;;;6.10;;
70233;SDS011;75981;42.636;23.376;2024-02-14T08:44:04;13.98;;;7.00;;
70233;SDS011;75981;42.636;23.376;2024-02-14T08:46:32;11.18;;;6.85;;
70233;SDS011;75981;42.636;23.376;2024-02-14T08:48:59;12.50;;;6.47;;
70233;SDS011;75981;42.636;23.376;2024-02-14T08:51:27;12.05;;;6.53;;
70233;SDS011;75981;42.636;23.376;2024-02-14T08:53:53;10.27;;;5.43;;
70233;SDS011;75981;42.636;23.376;2024-02-14T08:56:20;11.75;;;6.57;;
70233;SDS011;75981;42.636;23.376;2024-02-14T08:58:47;14.93;;;6.10;;
70233;SDS011;75981;42.636;23.376;2024-02-14T09:01:13;14.07;;;6.88;;
70233;SDS011;75981;42.636;23.376;2024-02-14T09:03:40;12.80;;;6.30;;
70233;SDS011;75981;42.636;23.376;2024-02-14T09:06:13;12.63;;;6.82;;
70233;SDS011;75981;42.636;23.376;2024-02-14T09:08:39;9.68;;;5.28;;
70233;SDS011;75981;42.636;23.376;2024-02-14T09:11:06;11.40;;;5.93;;
70233;SDS011;75981;42.636;23.376;2024-02-14T09:13:31;10.60;;;5.20;;
70233;SDS011;75981;42.636;23.376;2024-02-14T09:15:56;11.70;;;6.70;;
70233;SDS011;75981;42.636;23.376;2024-02-14T09:18:22;11.07;;;5.55;;
70233;SDS011;75981;42.636;23.376;2024-02-14T09:20:49;10.93;;;5.57;;
70233;SDS011;75981;42.636;23.376;2024-02-14T09:23:15;12.75;;;6.47;;
70233;SDS011;75981;42.636;23.376;2024-02-14T09:25:45;10.90;;;6.20;;
70233;SDS011;75981;42.636;23.376;2024-02-14T09:28:12;12.43;;;6.32;;
70233;SDS011;75981;42.636;23.376;2024-02-14T09:30:39;11.48;;;5.90;;
70233;SDS011;75981;42.636;23.376;2024-02-14T09:33:04;11.98;;;6.30;;
70233;SDS011;75981;42.636;23.376;2024-02-14T09:35:30;11.77;;;6.63;;
70233;SDS011;75981;42.636;23.376;2024-02-14T09:37:55;11.32;;;6.38;;
70233;SDS011;75981;42.636;23.376;2024-02-14T09:40:21;13.32;;;6.63;;
70233;SDS011;75981;42.636;23.376;2024-02-14T09:42:53;13.55;;;6.65;;
70233;SDS011;75981;42.636;23.376;2024-02-14T09:45:21;12.73;;;6.80;;
70233;SDS011;75981;42.636;23.376;2024-02-14T09:47:49;12.60;;;7.00;;
70233;SDS011;75981;42.636;23.376;2024-02-14T09:50:15;13.23;;;6.40;;
70233;SDS011;75981;42.636;23.376;2024-02-14T09:52:41;14.05;;;6.75;;
70233;SDS011;75981;42.636;23.376;2024-02-14T09:55:08;12.55;;;6.38;;
70233;SDS011;75981;42.636;23.376;2024-02-14T09:57:34;12.70;;;6.47;;
70233;SDS011;75981;42.636;23.376;2024-02-14T10:00:06;11.00;;;6.20;;
70233;SDS011;75981;42.636;23.376;2024-02-14T10:02:34;11.85;;;6.72;;
70233;SDS011;75981;42.636;23.376;2024-02-14T10:05:00;11.07;;;6.68;;
70233;SDS011;75981;42.636;23.376;2024-02-14T10:07:26;11.18;;;6.68;;
70233;SDS011;75981;42.636;23.376;2024-02-14T10:09:52;13.50;;;6.43;;
70233;SDS011;75981;42.636;23.376;2024-02-14T10:12:19;11.35;;;6.85;;
70233;SDS011;75981;42.636;23.376;2024-02-14T10:14:45;11.93;;;6.35;;
70233;SDS011;75981;42.636;23.376;2024-02-14T10:17:20;14.50;;;6.43;;
70233;SDS011;75981;42.636;23.376;2024-02-14T10:19:56;11.95;;;6.40;;
70233;SDS011;75981;42.636;23.376;2024-02-14T10:22:25;12.05;;;6.18;;
70233;SDS011;75981;42.636;23.376;2024-02-14T10:24:57;11.60;;;6.35;;
70233;SDS011;75981;42.636;23.376;2024-02-14T10:27:22;12.90;;;5.78;;
70233;SDS011;75981;42.636;23.376;2024-02-14T10:29:48;11.88;;;6.47;;
70233;SDS011;75981;42.636;23.376;2024-02-14T10:32:16;10.55;;;6.10;;
70233;SDS011;75981;42.636;23.376;2024-02-14T10:34:42;11.07;;;6.20;;
70233;SDS011;75981;42.636;23.376;2024-02-14T10:37:10;13.50;;;6.55;;
70233;SDS011;75981;42.636;23.376;2024-02-14T10:39:40;13.35;;;6.53;;
70233;SDS011;75981;42.636;23.376;2024-02-14T10:42:07;11.57;;;6.35;;
70233;SDS011;75981;42.636;23.376;2024-02-14T10:44:32;11.75;;;5.50;;
70233;SDS011;75981;42.636;23.376;2024-02-14T10:47:00;10.95;;;6.35;;
70233;SDS011;75981;42.636;23.376;2024-02-14T10:49:28;12.52;;;6.55;;
70233;SDS011;75981;42.636;23.376;2024-02-14T10:51:54;14.30;;;5.97;;
70233;SDS011;75981;42.636;23.376;2024-02-14T10:54:21;11.07;;;6.05;;
70233;SDS011;75981;42.636;23.376;2024-02-14T10:56:50;12.38;;;6.32;;
70233;SDS011;75981;42.636;23.376;2024-02-14T10:59:19;12.82;;;6.22;;
70233;SDS011;75981;42.636;23.376;2024-02-14T11:01:46;11.15;;;5.90;;
70233;SDS011;75981;42.636;23.376;2024-02-14T11:04:12;11.80;;;6.35;;
70233;SDS011;75981;42.636;23.376;2024-02-14T11:06:48;11.35;;;6.55;;
70233;SDS011;75981;42.636;23.376;2024-02-14T11:09:17;11.93;;;6.72;;
70233;SDS011;75981;42.636;23.376;2024-02-14T11:11:43;11.27;;;6.70;;
70233;SDS011;75981;42.636;23.376;2024-02-14T11:14:10;11.43;;;6.45;;
70233;SDS011;75981;42.636;23.376;2024-02-14T11:16:37;12.27;;;6.40;;
70233;SDS011;75981;42.636;23.376;2024-02-14T11:19:07;11.35;;;5.78;;
70233;SDS011;75981;42.636;23.376;2024-02-14T11:21:36;11.98;;;5.85;;
70233;SDS011;75981;42.636;23.376;2024-02-14T11:24:06;10.85;;;6.18;;
70233;SDS011;75981;42.636;23.376;2024-02-14T11:26:48;11.90;;;6.30;;
70233;SDS011;75981;42.636;23.376;2024-02-14T11:29:20;10.32;;;5.50;;
70233;SDS011;75981;42.636;23.376;2024-02-14T11:31:46;13.25;;;6.20;;
70233;SDS011;75981;42.636;23.376;2024-02-14T11:34:16;10.07;;;5.90;;
70233;SDS011;75981;42.636;23.376;2024-02-14T11:36:42;12.45;;;6.50;;
70233;SDS011;75981;42.636;23.376;2024-02-14T11:39:09;13.07;;;6.57;;
70233;SDS011;75981;42.636;23.376;2024-02-14T11:41:37;13.27;;;6.00;;
70233;SDS011;75981;42.636;23.376;2024-02-14T11:44:03;11.52;;;5.97;;
70233;SDS011;75981;42.636;23.376;2024-02-14T11:46:33;11.80;;;6.70;;
70233;SDS011;75981;42.636;23.376;2024-02-14T11:49:00;11.25;;;5.93;;
70233;SDS011;75981;42.636;23.376;2024-02-14T11:51:30;12.52;;;6.13;;
70233;SDS011;75981;42.636;23.376;2024-02-14T11:53:58;10.07;;;5.32;;
70233;SDS011;75981;42.636;23.376;2024-02-14T11:56:39;11.85;;;5.97;;
70233;SDS011;75981;42.636;23.376;2024-02-14T11:59:05;10.40;;;5.45;;
70233;SDS011;75981;42.636;23.376;2024-02-14T12:01:35;12.43;;;5.78;;
70233;SDS011;75981;42.636;23.376;2024-02-14T12:04:06;13.30;;;5.90;;
70233;SDS011;75981;42.636;23.376;2024-02-14T12:06:33;11.25;;;5.63;;
70233;SDS011;75981;42.636;23.376;2024-02-14T12:09:00;14.07;;;6.18;;
70233;SDS011;75981;42.636;23.376;2024-02-14T12:11:35;10.75;;;5.95;;
70233;SDS011;75981;42.636;23.376;2024-02-14T12:14:06;10.15;;;5.68;;
70233;SDS011;75981;42.636;23.376;2024-02-14T12:16:34;11.23;;;6.00;;
70233;SDS011;75981;42.636;23.376;2024-02-14T12:19:13;11.48;;;6.07;;
70233;SDS011;75981;42.636;23.376;2024-02-14T12:21:40;10.32;;;5.30;;
70233;SDS011;75981;42.636;23.376;2024-02-14T12:26:32;12.52;;;5.90;;
70233;SDS011;75981;42.636;23.376;2024-02-14T12:29:00;12.15;;;5.05;;
70233;SDS011;75981;42.636;23.376;2024-02-14T12:31:27;11.68;;;5.85;;
70233;SDS011;75981;42.636;23.376;2024-02-14T12:33:52;9.95;;;5.45;;
70233;SDS011;75981;42.636;23.376;2024-02-14T12:36:20;10.18;;;5.53;;
70233;SDS011;75981;42.636;23.376;2024-02-14T12:38:46;14.07;;;5.38;;
70233;SDS011;75981;42.636;23.376;2024-02-14T12:41:11;10.25;;;5.20;;
70233;SDS011;75981;42.636;23.376;2024-02-14T12:43:37;9.60;;;5.53;;
70233;SDS011;75981;42.636;23.376;2024-02-14T12:46:02;13.38;;;5.55;;
70233;SDS011;75981;42.636;23.376;2024-02-14T12:48:29;15.23;;;5.55;;
70233;SDS011;75981;42.636;23.376;2024-02-14T12:50:55;13.40;;;6.13;;
70233;SDS011;75981;42.636;23.376;2024-02-14T12:53:23;12.15;;;5.93;;
70233;SDS011;75981;42.636;23.376;2024-02-14T12:55:49;11.27;;;5.68;;
70233;SDS011;75981;42.636;23.376;2024-02-14T12:58:14;11.35;;;5.80;;
70233;SDS011;75981;42.636;23.376;2024-02-14T13:00:40;13.32;;;5.90;;
70233;SDS011;75981;42.636;23.376;2024-02-14T13:03:07;10.90;;;5.55;;
70233;SDS011;75981;42.636;23.376;2024-02-14T13:05:36;11.00;;;5.70;;
70233;SDS011;75981;42.636;23.376;2024-02-14T13:08:01;12.30;;;5.93;;
70233;SDS011;75981;42.636;23.376;2024-02-14T13:10:27;12.98;;;5.68;;
70233;SDS011;75981;42.636;23.376;2024-02-14T13:12:54;11.02;;;5.63;;
70233;SDS011;75981;42.636;23.376;2024-02-14T13:15:19;12.50;;;5.88;;
70233;SDS011;75981;42.636;23.376;2024-02-14T13:17:45;11.02;;;5.72;;
70233;SDS011;75981;42.636;23.376;2024-02-14T13:20:11;11.68;;;5.95;;
70233;SDS011;75981;42.636;23.376;2024-02-14T13:22:36;12.23;;;5.60;;
70233;SDS011;75981;42.636;23.376;2024-02-14T13:25:02;11.63;;;4.95;;
70233;SDS011;75981;42.636;23.376;2024-02-14T13:27:30;9.90;;;5.28;;
70233;SDS011;75981;42.636;23.376;2024-02-14T13:29:55;10.32;;;5.03;;
70233;SDS011;75981;42.636;23.376;2024-02-14T13:32:21;10.50;;;5.32;;
70233;SDS011;75981;42.636;23.376;2024-02-14T13:34:46;11.07;;;5.55;;
70233;SDS011;75981;42.636;23.376;2024-02-14T13:37:13;13.38;;;5.80;;
70233;SDS011;75981;42.636;23.376;2024-02-14T13:39:40;11.48;;;5.85;;
70233;SDS011;75981;42.636;23.376;2024-02-14T13:42:06;11.65;;;5.97;;
70233;SDS011;75981;42.636;23.376;2024-02-14T13:44:33;11.77;;;5.70;;
70233;SDS011;75981;42.636;23.376;2024-02-14T13:46:58;10.95;;;5.47;;
70233;SDS011;75981;42.636;23.376;2024-02-14T13:49:24;11.70;;;5.55;;
70233;SDS011;75981;42.636;23.376;2024-02-14T13:51:50;12.25;;;5.90;;
70233;SDS011;75981;42.636;23.376;2024-02-14T13:54:16;12.82;;;5.88;;
70233;SDS011;75981;42.636;23.376;2024-02-14T13:56:43;14.65;;;6.28;;
70233;SDS011;75981;42.636;23.376;2024-02-14T13:59:10;11.05;;;6.18;;
70233;SDS011;75981;42.636;23.376;2024-02-14T14:01:36;11.48;;;5.82;;
70233;SDS011;75981;42.636;23.376;2024-02-14T14:04:02;12.40;;;6.10;;
70233;SDS011;75981;42.636;23.376;2024-02-14T14:06:28;14.90;;;6.05;;
70233;SDS011;75981;42.636;23.376;2024-02-14T14:08:54;15.63;;;5.82;;
70233;SDS011;75981;42.636;23.376;2024-02-14T14:11:20;12.32;;;5.68;;
70233;SDS011;75981;42.636;23.376;2024-02-14T14:13:45;11.10;;;5.70;;
70233;SDS011;75981;42.636;23.376;2024-02-14T14:16:11;13.70;;;5.53;;
70233;SDS011;75981;42.636;23.376;2024-02-14T14:18:36;10.80;;;5.75;;
70233;SDS011;75981;42.636;23.376;2024-02-14T14:21:02;10.57;;;5.32;;
70233;SDS011;75981;42.636;23.376;2024-02-14T14:23:28;11.25;;;5.40;;